Time;durP1;ratioP1;P1;durP2;ratioP2;P2;SDS_P1;SDS_P2;PMS_P1;PMS_P2;Temp;Humidity;BMP_temperature;BMP_pressure;BME280_temperature;BME280_humidity;BME280_pressure;Samples;Min_cycle;Max_cycle;Signal;HPM_P1;HPM_P2
2023/03/18 00:00:33;;;;;;;24.17;13.52;;;10.20;99.90;;;;;;5074899;28;20051;-82
2023/03/18 00:03:19;;;;;;;18.60;11.73;;;10.20;99.90;;;;;;5060044;28;20115;-82
2023/03/18 00:06:17;;;;;;;27.35;14.60;;;10.20;99.90;;;;;;5075491;28;20045;-82
2023/03/18 00:09:04;;;;;;;25.65;13.73;;;10.20;99.90;;;;;;5070772;28;20041;-81
2023/03/18 00:11:51;;;;;;;21.45;13.98;;;10.20;99.90;;;;;;5061337;28;20048;-83
2023/03/18 00:14:39;;;;;;;23.42;14.18;;;10.20;99.90;;;;;;5065337;28;20048;-81
2023/03/18 00:17:25;;;;;;;29.40;14.07;;;10.10;99.90;;;;;;5081016;28;20131;-83
2023/03/18 00:20:12;;;;;;;23.17;13.88;;;10.20;99.90;;;;;;5077272;28;20052;-82
2023/03/18 00:22:59;;;;;;;29.50;15.30;;;10.20;99.90;;;;;;5049882;28;20117;-81
2023/03/18 00:25:50;;;;;;;24.77;15.32;;;10.20;99.90;;;;;;5080046;28;20041;-84
2023/03/18 00:28:37;;;;;;;27.52;16.52;;;10.10;99.90;;;;;;5076700;28;20148;-82
2023/03/18 00:31:24;;;;;;;22.27;14.70;;;10.10;99.90;;;;;;5059293;28;20052;-81
2023/03/18 00:34:13;;;;;;;25.13;14.52;;;10.10;99.90;;;;;;5075937;28;20049;-82
2023/03/18 00:37:00;;;;;;;24.70;15.95;;;10.10;99.90;;;;;;5080666;28;20048;-84
2023/03/18 00:39:46;;;;;;;23.80;16.33;;;10.10;99.90;;;;;;5067849;28;20053;-83
2023/03/18 00:42:38;;;;;;;31.00;14.68;;;10.10;99.90;;;;;;5084513;28;20135;-84
2023/03/18 00:45:24;;;;;;;29.05;14.18;;;10.10;99.90;;;;;;5085529;28;20106;-84
2023/03/18 00:48:10;;;;;;;25.85;15.57;;;10.00;99.90;;;;;;5066494;28;20052;-82
2023/03/18 00:50:56;;;;;;;27.05;15.48;;;10.10;99.90;;;;;;5084450;28;20091;-82
2023/03/18 00:53:45;;;;;;;26.30;15.63;;;10.00;99.90;;;;;;5069581;28;20117;-84
2023/03/18 00:56:32;;;;;;;25.25;16.77;;;10.00;99.90;;;;;;5085512;28;20500;-81
2023/03/18 00:59:18;;;;;;;31.60;18.23;;;9.90;99.90;;;;;;5081097;28;20044;-81
2023/03/18 01:02:04;;;;;;;28.50;17.25;;;9.90;99.90;;;;;;5078937;28;20064;-83
2023/03/18 01:04:51;;;;;;;30.05;19.17;;;9.80;99.90;;;;;;5087099;28;20059;-80
2023/03/18 01:07:37;;;;;;;30.65;17.83;;;9.80;99.90;;;;;;5084036;28;20079;-83
2023/03/18 01:10:23;;;;;;;28.20;18.13;;;9.70;99.90;;;;;;5070375;28;20125;-84
2023/03/18 01:13:09;;;;;;;29.98;19.65;;;9.60;99.90;;;;;;5078824;28;20055;-81
2023/03/18 01:15:56;;;;;;;29.80;17.92;;;9.60;99.90;;;;;;5065224;28;20086;-81
2023/03/18 01:18:42;;;;;;;30.23;18.10;;;9.60;99.90;;;;;;5081715;28;20040;-81
2023/03/18 01:21:28;;;;;;;30.38;18.27;;;9.60;99.90;;;;;;5078677;28;20052;-80
2023/03/18 01:24:14;;;;;;;29.77;19.73;;;9.50;99.90;;;;;;5083482;28;20110;-85
2023/03/18 01:27:00;;;;;;;30.27;20.77;;;9.50;99.90;;;;;;5082490;28;20110;-83
2023/03/18 01:29:47;;;;;;;35.90;21.02;;;9.40;99.90;;;;;;5083535;28;20040;-81
2023/03/18 01:32:33;;;;;;;29.35;18.83;;;9.40;99.90;;;;;;5061998;28;20504;-80
2023/03/18 01:35:20;;;;;;;29.83;18.38;;;9.30;99.90;;;;;;5078940;28;20086;-79
2023/03/18 01:38:06;;;;;;;30.45;20.42;;;9.30;99.90;;;;;;5079202;28;20564;-80
2023/03/18 01:40:53;;;;;;;30.33;20.90;;;9.30;99.90;;;;;;5083330;28;20502;-80
2023/03/18 01:43:42;;;;;;;31.42;19.48;;;9.20;99.90;;;;;;5081536;28;20137;-81
2023/03/18 01:46:36;;;;;;;29.02;19.52;;;9.20;99.90;;;;;;5079755;28;20048;-82
2023/03/18 01:49:24;;;;;;;33.38;20.98;;;9.10;99.90;;;;;;5078404;28;20064;-83
2023/03/18 01:52:23;;;;;;;31.08;20.80;;;9.10;99.90;;;;;;5071109;28;20052;-82
2023/03/18 01:55:19;;;;;;;33.03;22.08;;;9.00;99.90;;;;;;5070809;28;20051;-81
2023/03/18 01:58:27;;;;;;;38.70;23.52;;;9.00;99.90;;;;;;5074551;28;20045;-82
2023/03/18 02:01:24;;;;;;;32.35;22.85;;;8.90;99.90;;;;;;5071109;28;20048;-82
2023/03/18 02:04:11;;;;;;;35.15;24.48;;;8.80;99.90;;;;;;5070401;28;20397;-82
2023/03/18 02:06:58;;;;;;;39.67;25.88;;;8.80;99.90;;;;;;5071799;28;20040;-83
2023/03/18 02:09:46;;;;;;;43.25;27.05;;;8.70;99.90;;;;;;5071129;28;20413;-82
2023/03/18 02:12:49;;;;;;;46.60;27.70;;;8.70;99.90;;;;;;5070871;28;20052;-82
2023/03/18 02:15:45;;;;;;;40.78;27.15;;;8.70;99.90;;;;;;5071769;28;20063;-81
2023/03/18 02:18:44;;;;;;;41.13;28.40;;;8.60;99.90;;;;;;5070273;28;20060;-83
2023/03/18 02:21:48;;;;;;;43.33;27.20;;;8.60;99.90;;;;;;5068462;28;20049;-81
2023/03/18 02:24:45;;;;;;;41.80;27.48;;;8.60;99.90;;;;;;5076573;28;20104;-80
2023/03/18 02:27:36;;;;;;;48.10;31.85;;;8.60;99.90;;;;;;5077092;28;20148;-81
2023/03/18 02:30:27;;;;;;;44.38;30.55;;;8.60;99.90;;;;;;5054481;28;20060;-85
2023/03/18 02:33:15;;;;;;;47.42;30.52;;;8.70;99.90;;;;;;5073649;28;20048;-82
2023/03/18 02:36:09;;;;;;;49.65;30.98;;;8.70;99.90;;;;;;5069295;28;20500;-82
2023/03/18 02:38:56;;;;;;;52.22;31.77;;;8.60;99.90;;;;;;5054684;28;20113;-85
2023/03/18 02:41:43;;;;;;;57.22;33.60;;;8.70;99.90;;;;;;5052180;28;20110;-84
2023/03/18 02:44:30;;;;;;;49.33;32.47;;;8.60;99.90;;;;;;5052357;28;20094;-84
2023/03/18 02:47:19;;;;;;;54.20;34.65;;;8.60;99.90;;;;;;5069027;28;20044;-86
2023/03/18 02:50:06;;;;;;;61.25;37.30;;;8.60;99.90;;;;;;5069148;28;20056;-85
2023/03/18 02:52:52;;;;;;;64.68;39.70;;;8.50;99.90;;;;;;5071046;28;20459;-86
2023/03/18 02:55:38;;;;;;;72.80;41.97;;;8.50;99.90;;;;;;5050712;28;20059;-86
2023/03/18 02:58:24;;;;;;;66.38;39.08;;;8.50;99.90;;;;;;5070491;28;20044;-86
2023/03/18 03:01:10;;;;;;;65.30;41.10;;;8.40;99.90;;;;;;5069713;28;20045;-86
2023/03/18 03:03:56;;;;;;;65.55;39.97;;;8.40;99.90;;;;;;5070040;28;20060;-85
2023/03/18 03:06:43;;;;;;;71.03;40.45;;;8.40;99.90;;;;;;5070531;28;20095;-84
2023/03/18 03:09:29;;;;;;;74.82;42.67;;;8.30;99.90;;;;;;5070484;28;20052;-82
2023/03/18 03:12:16;;;;;;;68.80;41.50;;;8.20;99.90;;;;;;5071641;28;20068;-83
2023/03/18 03:15:04;;;;;;;72.82;40.13;;;8.10;99.90;;;;;;5058092;28;20056;-82
2023/03/18 03:17:50;;;;;;;69.43;40.35;;;8.10;99.90;;;;;;5074430;28;20116;-84
2023/03/18 03:20:37;;;;;;;68.43;40.72;;;8.10;99.90;;;;;;5080167;28;20049;-80
2023/03/18 03:23:24;;;;;;;67.78;41.30;;;8.10;99.90;;;;;;5068502;28;20572;-84
2023/03/18 03:26:10;;;;;;;69.70;43.75;;;8.00;99.90;;;;;;5072947;28;20048;-85
2023/03/18 03:28:57;;;;;;;73.72;41.45;;;7.90;99.90;;;;;;5073722;28;20075;-82
2023/03/18 03:31:44;;;;;;;71.40;42.67;;;7.90;99.90;;;;;;5056027;28;20417;-84
2023/03/18 03:34:30;;;;;;;70.03;42.17;;;7.80;99.90;;;;;;5042508;28;20057;-82
2023/03/18 03:37:16;;;;;;;72.78;43.97;;;7.90;99.90;;;;;;5072353;28;20481;-84
2023/03/18 03:40:05;;;;;;;72.60;43.65;;;7.80;99.90;;;;;;5072713;28;20051;-84
2023/03/18 03:42:51;;;;;;;78.07;43.30;;;7.80;99.90;;;;;;5072324;28;20091;-82
2023/03/18 03:45:37;;;;;;;73.00;43.50;;;7.70;99.90;;;;;;5054836;28;20501;-85
2023/03/18 03:48:23;;;;;;;69.45;41.42;;;7.70;99.90;;;;;;5072824;28;20045;-84
2023/03/18 03:51:09;;;;;;;74.82;46.17;;;7.60;99.90;;;;;;5054956;28;20163;-85
2023/03/18 03:53:55;;;;;;;77.53;46.92;;;7.60;99.90;;;;;;5072118;28;20497;-85
2023/03/18 03:56:42;;;;;;;77.45;47.45;;;7.60;99.90;;;;;;5053649;28;20049;-83
2023/03/18 03:59:28;;;;;;;73.00;43.25;;;7.60;99.90;;;;;;5072595;28;20048;-85
2023/03/18 04:02:14;;;;;;;77.65;47.13;;;7.60;99.90;;;;;;5071337;28;20076;-81
2023/03/18 04:05:01;;;;;;;76.35;44.90;;;7.50;99.90;;;;;;5071916;28;20497;-83
2023/03/18 04:07:47;;;;;;;82.97;48.13;;;7.50;99.90;;;;;;5042028;28;20052;-80
2023/03/18 04:10:35;;;;;;;76.00;45.83;;;7.50;99.90;;;;;;5076005;28;20049;-81
2023/03/18 04:13:22;;;;;;;81.97;48.10;;;7.50;99.90;;;;;;5069537;28;20091;-86
2023/03/18 04:16:08;;;;;;;83.10;48.10;;;7.50;99.90;;;;;;5072304;28;20511;-81
2023/03/18 04:18:54;;;;;;;82.18;48.10;;;7.50;99.90;;;;;;5071652;28;20872;-83
2023/03/18 04:21:41;;;;;;;83.18;48.28;;;7.50;99.90;;;;;;5070482;28;20133;-83
2023/03/18 04:24:27;;;;;;;81.03;46.33;;;7.50;99.90;;;;;;5054131;28;20848;-84
2023/03/18 04:27:13;;;;;;;77.97;46.17;;;7.50;99.90;;;;;;5071429;28;20049;-85
2023/03/18 04:29:59;;;;;;;82.82;49.08;;;7.40;99.90;;;;;;5054871;28;20142;-84
2023/03/18 04:32:45;;;;;;;83.63;48.70;;;7.50;99.90;;;;;;5054106;28;20060;-86
2023/03/18 04:35:32;;;;;;;82.50;49.53;;;7.50;99.90;;;;;;5072140;28;20059;-84
2023/03/18 04:38:19;;;;;;;71.53;46.13;;;7.40;99.90;;;;;;5070894;28;20131;-82
2023/03/18 04:41:05;;;;;;;74.22;44.17;;;7.40;99.90;;;;;;5072154;28;20523;-85
2023/03/18 04:43:51;;;;;;;76.40;45.05;;;7.30;99.90;;;;;;5072615;28;20067;-84
2023/03/18 04:46:38;;;;;;;75.30;44.28;;;7.30;99.90;;;;;;5071079;28;20051;-84
2023/03/18 04:49:24;;;;;;;75.28;45.20;;;7.20;99.90;;;;;;5071642;28;20489;-83
2023/03/18 04:52:11;;;;;;;76.15;44.83;;;7.30;99.90;;;;;;5060555;28;20116;-82
2023/03/18 04:54:57;;;;;;;75.57;44.97;;;7.20;99.90;;;;;;5047534;28;20107;-82
2023/03/18 04:57:43;;;;;;;77.47;44.42;;;7.20;99.90;;;;;;5077712;28;20048;-81
2023/03/18 05:00:30;;;;;;;77.00;44.13;;;7.20;99.90;;;;;;5072541;28;20409;-81
2023/03/18 05:03:16;;;;;;;70.53;43.30;;;7.10;99.90;;;;;;5071325;28;20493;-84
2023/03/18 05:06:02;;;;;;;83.68;47.17;;;7.00;99.90;;;;;;5056278;28;20845;-85
2023/03/18 05:08:48;;;;;;;98.63;52.03;;;7.10;99.90;;;;;;5071315;28;20074;-83
2023/03/18 05:11:35;;;;;;;104.50;54.40;;;7.10;99.90;;;;;;5070370;28;20052;-81
2023/03/18 05:14:21;;;;;;;104.65;55.67;;;7.10;99.90;;;;;;5057145;28;20068;-85
2023/03/18 05:17:14;;;;;;;102.13;54.60;;;7.20;99.90;;;;;;5070377;28;20052;-86
2023/03/18 05:20:00;;;;;;;103.80;55.95;;;7.20;99.90;;;;;;5071677;28;20041;-85
2023/03/18 05:22:46;;;;;;;115.55;58.58;;;7.20;99.90;;;;;;5039993;28;20123;-85
2023/03/18 05:25:32;;;;;;;110.82;56.97;;;7.30;99.90;;;;;;5071233;28;20571;-86
2023/03/18 05:28:18;;;;;;;118.93;59.60;;;7.30;99.90;;;;;;5070988;28;20105;-83
2023/03/18 05:31:05;;;;;;;139.25;63.00;;;7.40;99.90;;;;;;5052721;28;20052;-85
2023/03/18 05:33:51;;;;;;;130.35;60.97;;;7.40;99.90;;;;;;5071782;28;20048;-83
2023/03/18 05:36:38;;;;;;;115.43;59.70;;;7.50;99.90;;;;;;5070521;28;20559;-82
2023/03/18 05:39:24;;;;;;;131.50;63.83;;;7.50;99.90;;;;;;5070712;28;20044;-81
2023/03/18 05:42:10;;;;;;;112.50;58.28;;;7.50;99.90;;;;;;5081715;28;20147;-85
2023/03/18 05:44:56;;;;;;;110.70;58.60;;;7.50;99.90;;;;;;5070270;28;20493;-81
2023/03/18 05:47:43;;;;;;;108.30;56.40;;;7.60;99.90;;;;;;5054556;28;20143;-82
2023/03/18 05:50:32;;;;;;;109.25;58.30;;;7.60;99.90;;;;;;5070317;28;20413;-81
2023/03/18 05:53:18;;;;;;;97.63;55.28;;;7.60;99.90;;;;;;5070983;28;20085;-85
2023/03/18 05:56:04;;;;;;;118.60;58.13;;;7.60;99.90;;;;;;5072249;28;20049;-82
2023/03/18 05:58:50;;;;;;;135.85;59.33;;;7.60;99.90;;;;;;5071205;28;20060;-82
2023/03/18 06:01:37;;;;;;;148.75;61.53;;;7.60;99.90;;;;;;5071093;28;20505;-83
2023/03/18 06:04:25;;;;;;;175.82;70.05;;;7.60;99.90;;;;;;5053431;28;20101;-85
2023/03/18 06:07:12;;;;;;;157.18;67.10;;;7.60;99.90;;;;;;5071414;28;20052;-83
2023/03/18 06:09:58;;;;;;;153.82;62.00;;;7.60;99.90;;;;;;5056285;28;20056;-82
2023/03/18 06:12:44;;;;;;;139.35;57.60;;;7.60;99.90;;;;;;5071029;28;20102;-82
2023/03/18 06:15:30;;;;;;;206.48;69.88;;;7.70;99.90;;;;;;5071928;28;20053;-84
2023/03/18 06:18:16;;;;;;;174.07;60.13;;;7.60;99.90;;;;;;5072848;28;20044;-83
2023/03/18 06:21:03;;;;;;;161.02;57.67;;;7.60;99.90;;;;;;5062481;28;20107;-81
2023/03/18 06:23:50;;;;;;;163.63;56.88;;;7.60;99.90;;;;;;5069185;28;20143;-84
2023/03/18 06:26:36;;;;;;;205.13;60.13;;;7.60;99.90;;;;;;5070211;28;20051;-84
2023/03/18 06:29:24;;;;;;;160.27;48.50;;;7.60;99.90;;;;;;5070279;28;20056;-83
2023/03/18 06:32:10;;;;;;;231.52;54.58;;;7.60;99.90;;;;;;5057146;28;20145;-83
2023/03/18 06:34:56;;;;;;;139.98;45.78;;;7.60;99.90;;;;;;5071994;28;20130;-84
2023/03/18 06:37:42;;;;;;;161.75;47.15;;;7.60;99.90;;;;;;5070121;28;20044;-82
2023/03/18 06:40:29;;;;;;;178.73;49.95;;;7.60;99.90;;;;;;5069361;28;20056;-87
2023/03/18 06:43:15;;;;;;;263.00;56.50;;;7.60;99.90;;;;;;5070192;28;20048;-83
2023/03/18 06:46:01;;;;;;;149.30;43.42;;;7.60;99.90;;;;;;5055532;28;20113;-82
2023/03/18 06:48:47;;;;;;;185.23;49.60;;;7.60;99.90;;;;;;5069740;28;20047;-83
2023/03/18 06:51:33;;;;;;;191.93;47.50;;;7.60;99.90;;;;;;5069245;28;20059;-80
2023/03/18 06:54:20;;;;;;;318.90;55.72;;;7.70;99.90;;;;;;5069956;28;20059;-81
2023/03/18 06:57:07;;;;;;;214.85;44.85;;;7.70;99.90;;;;;;5070150;28;20128;-82
2023/03/18 06:59:53;;;;;;;190.75;43.55;;;7.70;99.90;;;;;;5054053;28;20412;-85
2023/03/18 07:02:40;;;;;;;174.80;40.67;;;7.80;99.90;;;;;;5070436;28;20052;-84
2023/03/18 07:05:27;;;;;;;185.82;43.90;;;7.80;99.90;;;;;;5069467;28;20055;-84
2023/03/18 07:08:14;;;;;;;157.50;36.35;;;7.80;99.90;;;;;;5052327;28;20059;-84
2023/03/18 07:11:01;;;;;;;228.00;44.88;;;7.90;99.90;;;;;;5069497;28;20092;-84
2023/03/18 07:13:47;;;;;;;202.68;41.97;;;8.00;99.90;;;;;;5068746;28;20049;-84
2023/03/18 07:16:34;;;;;;;218.05;43.00;;;8.00;99.90;;;;;;5054880;28;20061;-84
2023/03/18 07:19:20;;;;;;;234.20;41.78;;;8.20;99.90;;;;;;5069444;28;20052;-82
2023/03/18 07:22:06;;;;;;;348.95;55.28;;;8.20;99.90;;;;;;5037176;28;20044;-84
2023/03/18 07:24:52;;;;;;;177.95;38.45;;;8.30;99.90;;;;;;5071176;28;20083;-83
2023/03/18 07:27:39;;;;;;;155.18;37.85;;;8.30;99.90;;;;;;5061590;28;20090;-83
2023/03/18 07:30:27;;;;;;;150.68;35.03;;;8.40;99.90;;;;;;5059472;28;20058;-84
2023/03/18 07:33:14;;;;;;;212.48;42.40;;;8.50;99.90;;;;;;5070295;28;20044;-85
2023/03/18 07:36:00;;;;;;;162.10;42.75;;;8.50;99.90;;;;;;5069843;28;20501;-82
2023/03/18 07:38:46;;;;;;;174.15;43.55;;;8.60;99.90;;;;;;5055310;28;20052;-85
2023/03/18 07:41:33;;;;;;;160.07;44.45;;;8.60;99.90;;;;;;5069621;28;20059;-85
2023/03/18 07:44:19;;;;;;;160.07;48.10;;;8.70;99.90;;;;;;5068729;28;20048;-83
2023/03/18 07:47:05;;;;;;;133.13;43.75;;;8.80;99.90;;;;;;5069325;28;20084;-85
2023/03/18 07:49:52;;;;;;;128.27;44.72;;;9.00;99.90;;;;;;5069196;28;20060;-85
2023/03/18 07:52:38;;;;;;;107.85;43.38;;;9.00;99.90;;;;;;5068609;28;20939;-85
2023/03/18 07:55:24;;;;;;;107.80;44.42;;;9.10;99.90;;;;;;5068566;28;20080;-84
2023/03/18 07:58:11;;;;;;;108.47;45.55;;;9.10;99.90;;;;;;5068360;28;20122;-86
2023/03/18 08:00:58;;;;;;;117.53;48.25;;;9.20;99.90;;;;;;5069678;28;20171;-85
2023/03/18 08:03:45;;;;;;;111.25;46.20;;;9.20;99.90;;;;;;5069613;28;20059;-86
2023/03/18 08:06:31;;;;;;;106.03;47.08;;;9.40;99.90;;;;;;5068538;28;20045;-83
2023/03/18 08:09:18;;;;;;;92.82;44.20;;;9.50;99.90;;;;;;5050326;28;20063;-83
2023/03/18 08:12:04;;;;;;;102.88;45.50;;;9.50;99.90;;;;;;5071271;28;20049;-82
2023/03/18 08:14:51;;;;;;;93.53;45.03;;;9.60;99.90;;;;;;5041254;28;20127;-84
2023/03/18 08:17:38;;;;;;;83.72;43.42;;;9.70;99.90;;;;;;5059160;28;20056;-83
2023/03/18 08:20:24;;;;;;;83.07;45.45;;;9.80;99.90;;;;;;5074569;28;20050;-84
2023/03/18 08:23:10;;;;;;;77.18;41.95;;;9.90;99.90;;;;;;5072567;28;20052;-83
2023/03/18 08:25:56;;;;;;;75.32;40.45;;;10.00;99.90;;;;;;5058084;28;20058;-83
2023/03/18 08:28:42;;;;;;;74.38;41.78;;;10.10;99.90;;;;;;5057302;28;20178;-84
2023/03/18 08:31:28;;;;;;;69.13;39.60;;;10.30;99.90;;;;;;5075784;28;20068;-83
2023/03/18 08:34:14;;;;;;;66.25;39.72;;;10.40;99.90;;;;;;5077854;28;20052;-83
2023/03/18 08:37:00;;;;;;;71.00;40.15;;;10.50;99.90;;;;;;5076877;28;20144;-80
2023/03/18 08:39:46;;;;;;;65.63;37.63;;;10.50;99.90;;;;;;5051645;28;20047;-84
2023/03/18 08:42:32;;;;;;;59.05;36.75;;;10.60;99.90;;;;;;5079322;28;20044;-83
2023/03/18 08:45:19;;;;;;;57.85;35.08;;;10.70;99.90;;;;;;5075432;28;20084;-87
2023/03/18 08:48:06;;;;;;;59.40;36.63;;;10.70;99.90;;;;;;5056293;28;20044;-82
2023/03/18 08:50:53;;;;;;;63.13;35.38;;;10.80;99.90;;;;;;5057019;28;20052;-81
2023/03/18 08:53:39;;;;;;;49.53;33.35;;;10.90;99.90;;;;;;5072502;28;20056;-81
2023/03/18 08:56:26;;;;;;;55.40;35.30;;;11.00;99.90;;;;;;5078646;28;20044;-82
2023/03/18 08:59:12;;;;;;;52.58;32.67;;;11.10;99.90;;;;;;5072995;28;20056;-82
2023/03/18 09:01:58;;;;;;;59.45;35.13;;;11.20;99.90;;;;;;5055306;28;20063;-82
2023/03/18 09:04:46;;;;;;;49.15;31.92;;;11.30;99.90;;;;;;5055911;28;20543;-82
2023/03/18 09:07:32;;;;;;;47.85;32.45;;;11.40;99.90;;;;;;5075993;28;20045;-83
2023/03/18 09:10:18;;;;;;;51.70;33.22;;;11.60;99.90;;;;;;5064022;28;20049;-84
2023/03/18 09:13:04;;;;;;;40.63;28.98;;;11.80;99.90;;;;;;5075185;28;20074;-83
2023/03/18 09:15:50;;;;;;;48.35;29.52;;;11.90;99.90;;;;;;5072216;28;20053;-85
2023/03/18 09:18:38;;;;;;;45.58;29.88;;;11.90;99.90;;;;;;5072388;28;20108;-85
2023/03/18 09:21:24;;;;;;;46.10;29.67;;;11.90;99.90;;;;;;5055697;28;20053;-84
2023/03/18 09:24:10;;;;;;;43.58;29.30;;;11.90;99.90;;;;;;5073342;28;20045;-83
2023/03/18 09:26:58;;;;;;;47.20;30.42;;;12.00;99.90;;;;;;5071961;28;20118;-82
2023/03/18 09:29:45;;;;;;;49.33;30.58;;;12.00;99.90;;;;;;5070252;28;20040;-84
2023/03/18 09:32:31;;;;;;;49.90;28.67;;;12.00;99.90;;;;;;5069851;28;20048;-81
2023/03/18 09:35:18;;;;;;;48.15;28.13;;;12.10;99.90;;;;;;5072033;28;20195;-83
2023/03/18 09:38:05;;;;;;;39.83;29.17;;;12.10;99.90;;;;;;5053406;28;20074;-82
2023/03/18 09:41:11;;;;;;;45.95;27.70;;;12.10;99.90;;;;;;5055787;28;20048;-84
2023/03/18 09:44:12;;;;;;;39.15;26.63;;;12.10;99.90;;;;;;5070792;28;20056;-83
2023/03/18 09:47:20;;;;;;;41.95;27.55;;;12.20;99.90;;;;;;5071448;28;20052;-83
2023/03/18 09:50:30;;;;;;;41.63;26.65;;;12.20;99.90;;;;;;5053367;28;20055;-82
2023/03/18 09:53:30;;;;;;;40.28;25.85;;;12.30;99.90;;;;;;5072445;28;20506;-85
2023/03/18 09:56:27;;;;;;;46.90;27.33;;;12.30;99.90;;;;;;5072146;28;20048;-84
2023/03/18 09:59:22;;;;;;;41.55;26.40;;;12.30;99.90;;;;;;5053085;28;20087;-83
2023/03/18 10:02:21;;;;;;;;;;;12.40;99.90;;;;;;5073153;28;20485;-80
2023/03/18 10:05:48;;;;;;;40.67;26.67;;;12.50;99.90;;;;;;5079564;28;19993;-80
2023/03/18 10:08:53;;;;;;;38.78;25.48;;;12.60;99.90;;;;;;5019581;28;20044;-83
2023/03/18 10:11:43;;;;;;;34.80;24.97;;;12.70;99.90;;;;;;5074600;28;20048;-84
2023/03/18 10:14:48;;;;;;;35.67;25.05;;;13.00;99.90;;;;;;5073232;28;20052;-85
2023/03/18 10:17:45;;;;;;;42.85;24.75;;;13.10;99.90;;;;;;5073003;28;20044;-83
2023/03/18 10:20:36;;;;;;;41.50;26.85;;;13.30;99.90;;;;;;5071152;28;20467;-86
2023/03/18 10:23:44;;;;;;;43.28;26.92;;;13.60;99.90;;;;;;5070851;28;20052;-85
2023/03/18 10:26:56;;;;;;;39.30;23.88;;;13.90;99.90;;;;;;5071252;28;20443;-84
2023/03/18 10:29:51;;;;;;;39.03;23.33;;;14.10;99.90;;;;;;5045419;28;20098;-83
2023/03/18 10:32:54;;;;;;;33.10;21.00;;;14.40;99.90;;;;;;5053970;28;20489;-85
2023/03/18 10:35:49;;;;;;;29.08;18.90;;;14.80;99.90;;;;;;5071721;28;20048;-86
2023/03/18 10:38:56;;;;;;;34.97;21.52;;;14.90;99.90;;;;;;5070814;28;20134;-85
2023/03/18 10:41:48;;;;;;;28.95;19.95;;;15.40;99.90;;;;;;5053051;28;20091;-85
2023/03/18 10:44:40;;;;;;;34.83;21.63;;;15.30;99.90;;;;;;5071641;28;20048;-84
2023/03/18 10:47:35;;;;;;;36.25;20.05;;;15.60;99.90;;;;;;5069784;28;20045;-85
2023/03/18 10:50:33;;;;;;;;;;;15.70;99.90;;;;;;5053187;28;20052;-83
2023/03/18 10:53:26;;;;;;;27.30;17.52;;;16.00;99.90;;;;;;5070661;28;20418;-84
2023/03/18 10:56:14;;;;;;;24.02;15.57;;;16.10;99.90;;;;;;5070425;28;20512;-85
2023/03/18 10:59:00;;;;;;;22.58;13.95;;;16.20;99.90;;;;;;5041193;28;20052;-82
2023/03/18 11:01:52;;;;;;;27.35;15.38;;;16.30;99.90;;;;;;5055332;28;20135;-82
2023/03/18 11:05:00;;;;;;;22.52;14.77;;;16.50;99.90;;;;;;5051109;28;20413;-85
2023/03/18 11:08:02;;;;;;;20.83;13.65;;;16.60;99.90;;;;;;5069965;28;20087;-82
2023/03/18 11:10:48;;;;;;;18.27;12.05;;;16.70;99.90;;;;;;5070082;28;20536;-82
2023/03/18 11:13:34;;;;;;;17.20;11.35;;;16.80;99.90;;;;;;5068912;28;20423;-82
2023/03/18 11:16:36;;;;;;;21.05;11.63;;;16.60;99.90;;;;;;5070429;28;20056;-85
2023/03/18 11:19:37;;;;;;;18.40;11.32;;;16.40;99.90;;;;;;5070085;28;20216;-86
2023/03/18 11:22:24;;;;;;;22.10;12.02;;;16.70;99.90;;;;;;5052201;28;20092;-82
2023/03/18 11:25:16;;;;;;;14.82;10.00;;;17.00;99.90;;;;;;5069725;28;20055;-84
2023/03/18 11:28:06;;;;;;;17.27;10.85;;;17.10;99.90;;;;;;5068751;28;20504;-83
2023/03/18 11:30:55;;;;;;;14.43;9.10;;;17.50;99.90;;;;;;5068824;28;20538;-82
2023/03/18 11:33:41;;;;;;;14.70;10.07;;;18.10;99.90;;;;;;5069318;28;20113;-84
2023/03/18 11:36:31;;;;;;;14.05;8.07;;;18.20;99.90;;;;;;5070892;28;20059;-86
2023/03/18 11:39:18;;;;;;;11.15;6.97;;;18.10;99.90;;;;;;5068284;28;20106;-83
2023/03/18 11:42:20;;;;;;;11.43;7.38;;;18.30;99.90;;;;;;5068603;28;20048;-82
2023/03/18 11:45:46;;;;;;;11.70;7.10;;;18.30;99.90;;;;;;5068358;28;20460;-83
2023/03/18 11:48:38;;;;;;;9.13;4.60;;;18.40;99.90;;;;;;5072160;28;20086;-82
2023/03/18 11:51:33;;;;;;;10.23;4.68;;;18.60;99.90;;;;;;5072366;28;20094;-83
2023/03/18 11:54:40;;;;;;;8.10;4.03;;;18.80;99.90;;;;;;5073991;28;20055;-83
2023/03/18 11:57:51;;;;;;;12.48;5.22;;;19.10;99.90;;;;;;5060565;28;20059;-83
2023/03/18 12:00:46;;;;;;;10.45;4.90;;;20.00;99.80;;;;;;5072502;28;20060;-82
2023/03/18 12:03:57;;;;;;;9.48;6.05;;;20.30;98.80;;;;;;5076814;28;20136;-85
2023/03/18 12:07:12;;;;;;;8.05;3.70;;;20.30;98.30;;;;;;5078654;28;20049;-81
2023/03/18 12:10:19;;;;;;;7.28;4.07;;;20.30;96.90;;;;;;5075117;28;20052;-81
2023/03/18 12:13:28;;;;;;;9.00;4.85;;;20.70;98.00;;;;;;5072018;28;20575;-81
2023/03/18 12:16:20;;;;;;;9.73;4.68;;;21.70;96.70;;;;;;5072663;28;20055;-82
2023/03/18 12:19:15;;;;;;;8.73;4.03;;;21.60;96.00;;;;;;5073355;28;20056;-85
2023/03/18 12:22:22;;;;;;;8.30;3.05;;;22.20;94.90;;;;;;5072825;28;20052;-82
2023/03/18 12:25:48;;;;;;;11.40;5.70;;;22.40;91.80;;;;;;5072322;28;20063;-82
2023/03/18 12:28:49;;;;;;;9.20;4.70;;;22.00;93.00;;;;;;5054408;28;20055;-81
2023/03/18 12:31:35;;;;;;;10.90;5.43;;;22.90;93.10;;;;;;5040406;28;20060;-82
2023/03/18 12:34:40;;;;;;;9.38;4.55;;;23.30;92.40;;;;;;5052942;28;20411;-82
2023/03/18 12:37:41;;;;;;;9.93;4.55;;;23.70;91.50;;;;;;5072538;28;20451;-82
2023/03/18 12:41:14;;;;;;;8.52;4.07;;;23.70;90.40;;;;;;5053984;28;20654;-84
2023/03/18 12:44:12;;;;;;;10.68;4.32;;;22.70;86.10;;;;;;5045586;28;20424;-84
2023/03/18 12:47:05;;;;;;;6.30;3.70;;;23.80;90.40;;;;;;5072690;28;20056;-86
2023/03/18 12:49:56;;;;;;;7.65;3.28;;;24.40;86.30;;;;;;5057055;28;20053;-81
2023/03/18 12:52:45;;;;;;;8.35;3.05;;;23.90;86.90;;;;;;5053142;28;20052;-80
2023/03/18 12:55:42;;;;;;;3.95;2.28;;;24.20;85.80;;;;;;5041020;28;20087;-81
2023/03/18 12:58:36;;;;;;;4.30;2.00;;;23.80;83.50;;;;;;5070776;28;20080;-81
2023/03/18 13:01:44;;;;;;;6.68;3.03;;;23.70;85.60;;;;;;5053934;28;20052;-81
2023/03/18 13:04:34;;;;;;;5.20;2.80;;;23.40;83.60;;;;;;5075294;28;20051;-81
2023/03/18 13:07:31;;;;;;;6.65;3.08;;;23.20;86.20;;;;;;5055416;28;20052;-81
2023/03/18 13:10:24;;;;;;;6.03;3.00;;;23.10;85.20;;;;;;5070339;28;20048;-81
2023/03/18 13:13:12;;;;;;;4.38;2.58;;;22.40;86.40;;;;;;5070466;28;20530;-82
2023/03/18 13:16:00;;;;;;;7.72;3.70;;;23.50;85.30;;;;;;5071130;28;20102;-83
2023/03/18 13:18:51;;;;;;;7.40;3.42;;;23.50;84.70;;;;;;5070894;28;20041;-81
2023/03/18 13:21:43;;;;;;;6.40;4.07;;;23.60;85.00;;;;;;5071785;28;20101;-86
2023/03/18 13:24:45;;;;;;;9.50;4.30;;;23.90;83.90;;;;;;5071501;28;20765;-85
2023/03/18 13:28:03;;;;;;;7.60;3.65;;;24.00;82.00;;;;;;5056689;28;20040;-81
2023/03/18 13:30:52;;;;;;;9.05;4.95;;;25.20;81.10;;;;;;5071388;28;20071;-85
2023/03/18 13:33:46;;;;;;;6.05;3.72;;;25.20;79.00;;;;;;5052565;28;20488;-84
2023/03/18 13:36:58;;;;;;;7.15;4.00;;;24.20;79.40;;;;;;5052438;28;20059;-82
2023/03/18 13:39:59;;;;;;;15.10;4.60;;;22.30;84.70;;;;;;5050784;28;20045;-81
2023/03/18 13:42:47;;;;;;;6.43;3.95;;;21.60;88.10;;;;;;5070719;28;20102;-81
2023/03/18 13:45:43;;;;;;;8.18;3.75;;;22.70;88.10;;;;;;5071129;28;20457;-83
2023/03/18 13:48:35;;;;;;;9.77;4.88;;;22.60;85.90;;;;;;5073049;28;20056;-82
2023/03/18 13:51:24;;;;;;;7.70;5.35;;;22.20;86.30;;;;;;5071984;28;20088;-83
2023/03/18 13:54:17;;;;;;;7.97;4.93;;;22.10;87.80;;;;;;5071734;28;20420;-84
2023/03/18 13:57:34;;;;;;;7.93;3.88;;;22.50;86.80;;;;;;5071658;28;20055;-82
2023/03/18 14:00:32;;;;;;;8.35;4.28;;;24.20;83.40;;;;;;5053776;28;20523;-82
2023/03/18 14:03:22;;;;;;;6.60;3.92;;;24.40;82.20;;;;;;5077721;28;20132;-81
2023/03/18 14:06:11;;;;;;;5.35;3.40;;;24.60;83.10;;;;;;5080367;28;20052;-84
2023/03/18 14:09:18;;;;;;;26.08;3.72;;;25.10;78.80;;;;;;5075737;28;20044;-83
2023/03/18 14:12:19;;;;;;;6.38;1.90;;;24.80;77.70;;;;;;5052979;28;20048;-81
2023/03/18 14:15:11;;;;;;;5.25;2.17;;;24.30;76.20;;;;;;5074600;28;20064;-84
2023/03/18 14:17:58;;;;;;;5.53;1.70;;;23.30;78.70;;;;;;5058524;28;20044;-81
2023/03/18 14:20:45;;;;;;;5.72;1.60;;;22.40;82.30;;;;;;5070452;28;20106;-81
2023/03/18 14:23:56;;;;;;;4.95;1.90;;;21.80;84.10;;;;;;5069452;28;20520;-81
2023/03/18 14:27:03;;;;;;;5.38;2.05;;;21.30;86.80;;;;;;5070545;28;20049;-81
2023/03/18 14:29:49;;;;;;;3.45;1.40;;;20.90;86.50;;;;;;5066962;28;20101;-80
2023/03/18 14:32:38;;;;;;;4.47;2.20;;;20.40;90.00;;;;;;5068962;28;20117;-81